Terminal Aerodrome Forecast
Issued by NWS Wichita, KS

Home | Current Version | Previous Version | Graphics & Text | Print | Product List | Glossary On
Versions: 1 2 3 4 5 6 7 8 9 10 11 12 13 14 15 16 17 18 19 20 21 22
330
FTUS43 KICT 290007 AAB
TAFICT
TAF AMD
KICT 290007Z 2900/2924 06009KT P6SM SCT150 BKN300
     FM290500 05013KT P6SM SCT050 OVC170
     FM291100 06013KT P6SM SCT015 OVC050
     FM291400 05017KT P6SM VCSH OVC015=

USA.gov is the U.S. government's official web portal to all federal, state and local government web resources and services.